Terminal Aerodrome Forecast
Issued by NWS Bismarck, ND

Home | Current Version | Previous Version | Graphics & Text | Print | Product List | Glossary On
Versions: 1 2 3 4 5 6 7 8 9 10 11 12 13 14 15 16 17 18 19 20 21 22
000
FTUS43 KBIS 221613 AAC
TAFBIS
TAF AMD
KBIS 221613Z 2216/2312 36008KT 2SM -SN BR BKN007 OVC015
      TEMPO 2216/2218 1SM -SN BR BKN003 OVC007
     FM221800 01013KT 4SM -SN BR BKN008 OVC018
     FM222000 01015KT P6SM OVC009
     FM230000 01006KT P6SM OVC015=

USA.gov is the U.S. government's official web portal to all federal, state and local government web resources and services.